»·PEaware :: N437PD S70-KPUW

N437PD :: S70-KPUW

FLIGHT INFORMATION

Flight Status: Arrived
Operator: Privately registered:
United States
More flights under this callsign
Pilot: Michael F. (10210)
Aircraft: CESSNA 182 SKYLANE
(C182)
More flights by this aircraft type
Origin: S70 Othello Mun
United States
Destination: KPUW Pullman/Moscow Regl
United States
More flights between these airports :: More routes between these airports
Route: PUW
File this flight plan on PilotEdge
Remarks:
Altitude:
(Current/Filed)
5,500ft
Speed:
(Current/Filed)
130kts
Departed: 03-Oct-17 04:00 PM
Arrived: 03-Oct-17 04:40 PM
Distance/Time
Traveled:
81nm/0:40
Distance/Time
To Go:
Arrived

Flight Plot

Page will automatically refresh every two minutes.

Flight plan parsing failed; only flown route is shown


Map Options




Map Legend


Flown Route
Filed Route
Departure Airport
Arrival Airport
Navaid (VOR, NDB)
Fix

Horizontal Profiles

Position Reports

Time Latitude Longitude Heading Altitude Ground
Speed
03-Oct-17 15:53 46.795639 -119.079493 88 1148ft 0kts
03-Oct-17 15:54 46.795639 -119.079493 88 1148ft 0kts
03-Oct-17 15:55 46.795639 -119.079493 88 1148ft 0kts
03-Oct-17 15:56 46.795639 -119.079493 88 1148ft 0kts
03-Oct-17 15:57 46.795639 -119.079491 88 1148ft 0kts
03-Oct-17 15:58 46.795639 -119.079486 88 1148ft 0kts
03-Oct-17 15:59 46.795639 -119.079482 88 1148ft 0kts
03-Oct-17 16:00 46.795638 -119.079445 99 1148ft 2kts
03-Oct-17 16:01 46.795362 -119.084247 269 1148ft 16kts
03-Oct-17 16:02 46.795094 -119.085375 177 1148ft 0kts
03-Oct-17 16:03 46.794765 -119.087017 268 1148ft 18kts
03-Oct-17 16:04 46.794765 -119.080258 88 1243ft 74kts
03-Oct-17 16:05 46.790786 -119.046473 87 2171ft 86kts
03-Oct-17 16:06 46.786989 -119.010454 98 3038ft 92kts
03-Oct-17 16:07 46.787276 -118.969727 85 3846ft 110kts
03-Oct-17 16:08 46.785812 -118.924040 91 4672ft 112kts
03-Oct-17 16:09 46.783151 -118.877482 91 5469ft 126kts
03-Oct-17 16:10 46.779715 -118.820794 92 5493ft 143kts
03-Oct-17 16:11 46.777092 -118.773235 91 5483ft 138kts
03-Oct-17 16:12 46.773857 -118.717799 92 5492ft 137kts
03-Oct-17 16:13 46.769829 -118.652045 92 5490ft 144kts
03-Oct-17 16:14 46.766819 -118.603629 92 5487ft 145kts
03-Oct-17 16:15 46.762612 -118.535979 92 5480ft 138kts
03-Oct-17 16:16 46.759673 -118.489459 92 5490ft 143kts
03-Oct-17 16:17 46.756166 -118.430714 92 5484ft 145kts
03-Oct-17 16:18 46.752010 -118.362937 92 5482ft 141kts
03-Oct-17 16:19 46.748948 -118.315279 92 5488ft 146kts
03-Oct-17 16:20 46.745096 -118.256042 92 5476ft 141kts
03-Oct-17 16:21 46.741455 -118.200322 92 5479ft 136kts
03-Oct-17 16:22 46.737826 -118.145134 92 5489ft 139kts
03-Oct-17 16:23 46.734212 -118.088135 92 5482ft 141kts
03-Oct-17 16:24 46.730641 -118.031698 92 5481ft 139kts
03-Oct-17 16:25 46.726903 -117.975772 93 5487ft 139kts
03-Oct-17 16:26 46.723068 -117.919107 93 5485ft 142kts
03-Oct-17 16:27 46.719111 -117.861503 93 5488ft 143kts
03-Oct-17 16:28 46.715133 -117.804029 93 5482ft 138kts
03-Oct-17 16:29 46.711415 -117.748548 92 5489ft 139kts
03-Oct-17 16:30 46.707676 -117.692049 93 5486ft 138kts
03-Oct-17 16:31 46.703822 -117.637044 93 5499ft 136kts
03-Oct-17 16:32 46.699950 -117.582136 93 5506ft 138kts
03-Oct-17 16:33 46.695917 -117.526018 93 5507ft 140kts
03-Oct-17 16:34 46.694183 -117.469315 88 5501ft 135kts
03-Oct-17 16:35 46.693617 -117.415740 87 4981ft 132kts
03-Oct-17 16:36 46.691663 -117.362917 97 4507ft 129kts
03-Oct-17 16:37 46.686187 -117.311462 97 4405ft 127kts
03-Oct-17 16:38 46.680637 -117.261444 97 4404ft 126kts
03-Oct-17 16:39 46.676368 -117.210960 71 4384ft 121kts
03-Oct-17 16:40 46.701261 -117.184817 41 4110ft 91kts
03-Oct-17 16:41 46.721205 -117.165486 41 3396ft 71kts
03-Oct-17 16:42 46.734488 -117.146866 67 3032ft 60kts
03-Oct-17 16:43 46.740189 -117.124262 74 2644ft 57kts
03-Oct-17 16:44 46.743261 -117.111965 69 2558ft 12kts
03-Oct-17 16:45 46.745249 -117.109013 338 2558ft 9kts
03-Oct-17 16:46 46.745483 -117.109143 338 2558ft 0kts
03-Oct-17 16:47 46.745483 -117.109143 338 2558ft 0kts
03-Oct-17 16:48 46.745483 -117.109143 338 2558ft 0kts
03-Oct-17 16:49 46.745483 -117.109143 338 2558ft 0kts
03-Oct-17 16:50 46.745483 -117.109143 338 2558ft 0kts
03-Oct-17 16:51 46.745483 -117.109143 338 2558ft 0kts
03-Oct-17 16:52 46.745483 -117.109143 338 2558ft 0kts
03-Oct-17 16:53 46.745483 -117.109143 338 2558ft 0kts
03-Oct-17 16:54 46.745483 -117.109143 338 2558ft 0kts

Navigation Log

Ident Type
Flight plan parsing failed, navigation log unavailable